createdAt,value
2023-03-15T00:02:22.580Z,5.30
2023-03-15T00:04:51.635Z,8.70
2023-03-15T00:07:19.487Z,7.20
2023-03-15T00:09:47.478Z,4.90
2023-03-15T00:12:15.332Z,5.90
2023-03-15T00:14:43.049Z,8.80
2023-03-15T00:17:11.993Z,6.10
2023-03-15T00:19:39.853Z,8.20
2023-03-15T00:22:08.136Z,7.70
2023-03-15T00:24:36.101Z,12.10
2023-03-15T00:27:05.526Z,10.80
2023-03-15T00:29:35.612Z,6.50
2023-03-15T00:32:03.463Z,5.30
2023-03-15T00:34:33.832Z,9.30
2023-03-15T00:37:01.694Z,8.50
2023-03-15T00:39:29.570Z,7.00
2023-03-15T00:41:57.421Z,9.50
2023-03-15T00:44:26.412Z,8.70
2023-03-15T00:46:54.360Z,8.80
2023-03-15T00:49:22.338Z,12.80
2023-03-15T00:51:50.249Z,11.50
2023-03-15T00:54:18.065Z,9.00
2023-03-15T00:56:45.850Z,9.20
2023-03-15T00:59:13.658Z,11.40
2023-03-15T01:01:44.895Z,11.80
2023-03-15T01:04:12.929Z,7.30
2023-03-15T01:06:42.469Z,7.30
2023-03-15T01:09:10.339Z,9.60
2023-03-15T01:11:38.170Z,7.00
2023-03-15T01:14:08.905Z,7.60
2023-03-15T01:16:36.906Z,8.00
2023-03-15T01:19:04.786Z,7.50
2023-03-15T01:21:32.651Z,8.60
2023-03-15T01:24:00.528Z,9.20
2023-03-15T01:26:28.412Z,6.10
2023-03-15T01:28:56.500Z,7.60
2023-03-15T01:31:28.666Z,8.50
2023-03-15T01:33:58.001Z,9.20
2023-03-15T01:36:26.040Z,6.40
2023-03-15T01:38:55.213Z,10.60
2023-03-15T01:41:24.965Z,9.50
2023-03-15T01:43:53.006Z,6.00
2023-03-15T01:46:23.891Z,7.60
2023-03-15T01:48:55.029Z,9.30
2023-03-15T01:51:42.477Z,6.30
2023-03-15T01:54:12.971Z,11.60
2023-03-15T01:56:43.106Z,8.20
2023-03-15T01:59:15.304Z,8.80
2023-03-15T02:01:45.858Z,8.10
2023-03-15T02:04:17.185Z,7.10
2023-03-15T02:06:46.843Z,7.50
2023-03-15T02:09:16.815Z,5.40
2023-03-15T02:11:45.252Z,11.70
2023-03-15T02:18:47.889Z,6.00
2023-03-15T02:21:32.680Z,12.30
2023-03-15T02:24:07.078Z,12.90
2023-03-15T02:26:44.012Z,6.50
2023-03-15T02:29:11.020Z,13.10
2023-03-15T02:31:37.636Z,11.10
2023-03-15T02:34:08.448Z,9.30
2023-03-15T02:36:35.600Z,8.00
2023-03-15T02:39:12.490Z,9.40
2023-03-15T02:41:41.920Z,6.30
2023-03-15T02:44:11.280Z,11.80
2023-03-15T02:46:37.869Z,8.00
2023-03-15T02:49:06.853Z,6.20
2023-03-15T02:51:33.878Z,7.20
2023-03-15T02:54:00.675Z,12.10
2023-03-15T02:56:27.375Z,11.40
2023-03-15T02:58:57.044Z,5.80
2023-03-15T03:01:23.695Z,7.10
2023-03-15T03:03:50.545Z,7.90
2023-03-15T03:06:18.912Z,10.40
2023-03-15T03:08:46.668Z,5.60
2023-03-15T03:11:14.201Z,7.30
2023-03-15T03:13:40.998Z,9.80
2023-03-15T03:16:08.390Z,6.60
2023-03-15T03:18:35.465Z,11.40
2023-03-15T03:21:03.537Z,10.60
2023-03-15T03:23:30.910Z,8.30
2023-03-15T03:25:57.542Z,12.30
2023-03-15T03:28:25.046Z,7.00
2023-03-15T03:30:52.597Z,11.20
2023-03-15T03:33:19.596Z,7.60
2023-03-15T03:35:46.587Z,6.00
2023-03-15T03:38:13.603Z,9.80
2023-03-15T03:40:40.255Z,8.40
2023-03-15T03:43:07.196Z,9.70
2023-03-15T03:45:34.009Z,7.40
2023-03-15T03:48:00.448Z,13.50
2023-03-15T03:50:27.723Z,8.80
2023-03-15T03:52:54.252Z,8.50
2023-03-15T03:55:24.611Z,8.70
2023-03-15T03:57:52.245Z,7.30
2023-03-15T04:00:19.588Z,7.20
2023-03-15T04:02:46.032Z,7.00
2023-03-15T04:05:13.182Z,9.20
2023-03-15T04:07:40.979Z,6.80
2023-03-15T04:10:08.051Z,7.60
2023-03-15T04:12:34.494Z,10.10
2023-03-15T04:15:00.981Z,10.10
2023-03-15T04:17:27.476Z,5.10
2023-03-15T04:19:53.925Z,6.30
2023-03-15T04:22:20.369Z,8.10
2023-03-15T04:24:50.080Z,7.60
2023-03-15T04:27:16.493Z,11.20
2023-03-15T04:29:43.399Z,5.90
2023-03-15T04:32:11.442Z,7.60
2023-03-15T04:34:40.851Z,15.50
2023-03-15T04:37:07.333Z,5.90
2023-03-15T04:39:33.794Z,7.30
2023-03-15T04:42:00.299Z,11.70
2023-03-15T04:44:26.704Z,5.50
2023-03-15T04:46:54.124Z,8.60
2023-03-15T04:49:20.654Z,8.10
2023-03-15T04:51:47.161Z,6.30
2023-03-15T04:54:13.670Z,12.20
2023-03-15T04:56:41.639Z,6.30
2023-03-15T04:59:10.071Z,10.90
2023-03-15T05:01:39.114Z,10.00
2023-03-15T05:04:05.630Z,7.80
2023-03-15T05:06:32.091Z,10.40
2023-03-15T05:08:58.774Z,10.20
2023-03-15T05:11:25.608Z,6.20
2023-03-15T05:13:52.969Z,8.00
2023-03-15T05:16:19.704Z,10.30
2023-03-15T05:18:46.165Z,10.50
2023-03-15T05:21:12.795Z,6.20
2023-03-15T05:23:39.317Z,9.50
2023-03-15T05:26:05.863Z,8.40
2023-03-15T05:28:32.617Z,8.10
2023-03-15T05:31:00.656Z,12.20
2023-03-15T05:33:27.490Z,12.10
2023-03-15T05:35:55.797Z,7.80
2023-03-15T05:38:25.897Z,10.00
2023-03-15T05:40:53.034Z,10.00
2023-03-15T05:43:19.825Z,10.10
2023-03-15T05:45:48.039Z,13.50
2023-03-15T05:48:16.006Z,8.90
2023-03-15T05:50:42.429Z,6.60
2023-03-15T05:53:09.266Z,7.70
2023-03-15T05:55:36.628Z,9.60
2023-03-15T05:58:03.101Z,7.60
2023-03-15T06:00:30.164Z,9.50
2023-03-15T06:02:56.613Z,11.30
2023-03-15T06:05:23.278Z,8.80
2023-03-15T06:07:49.729Z,8.80
2023-03-15T06:10:16.850Z,7.50
2023-03-15T06:12:46.393Z,10.00
2023-03-15T06:15:13.102Z,8.60
2023-03-15T06:17:40.024Z,12.50
2023-03-15T06:20:06.992Z,5.50
2023-03-15T06:22:33.820Z,9.10
2023-03-15T06:25:00.400Z,9.30
2023-03-15T06:27:26.902Z,10.00
2023-03-15T06:29:53.442Z,8.60
2023-03-15T06:32:19.941Z,11.90
2023-03-15T06:34:46.519Z,6.80
2023-03-15T06:37:14.674Z,7.30
2023-03-15T06:39:44.194Z,6.50
2023-03-15T06:42:12.966Z,6.80
2023-03-15T06:44:40.779Z,6.90
2023-03-15T06:47:07.726Z,10.50
2023-03-15T06:49:34.839Z,9.90
2023-03-15T06:52:01.315Z,8.10
2023-03-15T06:54:28.046Z,12.90
2023-03-15T06:56:54.566Z,10.70
2023-03-15T06:59:21.075Z,8.40
2023-03-15T07:01:47.644Z,9.40
2023-03-15T07:04:14.675Z,8.40
2023-03-15T07:06:41.138Z,8.90
2023-03-15T07:09:07.555Z,8.30
2023-03-15T07:11:34.214Z,7.70
2023-03-15T07:14:00.642Z,14.50
2023-03-15T07:16:27.339Z,10.60
2023-03-15T07:18:56.023Z,11.60
2023-03-15T07:21:22.614Z,7.70
2023-03-15T07:23:49.097Z,8.50
2023-03-15T07:26:15.655Z,7.60
2023-03-15T07:28:44.137Z,10.70
2023-03-15T07:31:10.964Z,9.20
2023-03-15T07:33:37.733Z,7.90
2023-03-15T07:36:11.432Z,7.30
2023-03-15T07:38:38.625Z,4.60
2023-03-15T07:41:09.676Z,7.10
2023-03-15T07:43:36.489Z,8.30
2023-03-15T07:46:21.413Z,11.00
2023-03-15T07:49:05.713Z,8.50
2023-03-15T07:51:35.866Z,8.00
2023-03-15T07:54:03.234Z,11.40
2023-03-15T07:56:29.937Z,10.40
2023-03-15T07:58:56.872Z,8.20
2023-03-15T08:01:23.640Z,6.60
2023-03-15T08:03:50.136Z,9.40
2023-03-15T08:06:16.755Z,12.20
2023-03-15T08:08:43.293Z,7.30
2023-03-15T08:11:10.112Z,4.70
2023-03-15T08:13:36.741Z,8.80
2023-03-15T08:16:03.468Z,9.20
2023-03-15T08:18:30.653Z,10.00
2023-03-15T08:20:58.653Z,6.20
2023-03-15T08:23:25.857Z,11.00
2023-03-15T08:25:52.377Z,11.20
2023-03-15T08:28:18.878Z,11.30
2023-03-15T08:30:45.863Z,7.70
2023-03-15T08:33:12.372Z,11.80
2023-03-15T08:35:40.673Z,8.30
2023-03-15T08:38:08.756Z,10.10
2023-03-15T08:40:35.612Z,5.80
2023-03-15T08:43:02.238Z,9.80
2023-03-15T08:45:29.262Z,8.20
2023-03-15T08:47:56.956Z,12.90
2023-03-15T08:50:23.852Z,12.70
2023-03-15T08:55:09.662Z,11.10
2023-03-15T08:57:37.656Z,4.40
2023-03-15T09:00:10.168Z,13.30
2023-03-15T09:02:38.281Z,7.60
2023-03-15T09:05:07.372Z,7.90
2023-03-15T09:07:35.803Z,8.10
2023-03-15T09:10:05.674Z,7.10
2023-03-15T09:12:33.913Z,11.60
2023-03-15T09:15:01.889Z,8.30
2023-03-15T09:17:29.848Z,9.80
2023-03-15T09:19:58.726Z,7.00
2023-03-15T09:22:38.999Z,16.80
2023-03-15T09:25:09.834Z,6.70
2023-03-15T09:27:38.074Z,8.10
2023-03-15T09:30:06.462Z,9.20
2023-03-15T09:32:37.540Z,8.10
2023-03-15T09:35:09.209Z,7.80
2023-03-15T09:37:37.523Z,10.10
2023-03-15T09:40:07.594Z,7.80
2023-03-15T09:42:43.107Z,6.80
2023-03-15T09:45:16.300Z,10.60
2023-03-15T09:47:54.268Z,7.90
2023-03-15T09:50:26.210Z,7.00
2023-03-15T09:52:56.802Z,6.70
2023-03-15T09:55:27.530Z,8.60
2023-03-15T09:58:01.592Z,4.60
2023-03-15T10:00:32.655Z,6.60
2023-03-15T10:03:03.851Z,8.30
2023-03-15T10:05:37.685Z,8.20
2023-03-15T10:08:13.093Z,4.90
2023-03-15T10:10:46.959Z,7.30
2023-03-15T10:13:22.236Z,5.00
2023-03-15T10:16:11.752Z,7.60
2023-03-15T10:18:42.743Z,6.60
2023-03-15T10:21:12.319Z,6.30
2023-03-15T10:23:47.008Z,2.80
2023-03-15T10:26:17.097Z,11.90
2023-03-15T10:28:45.103Z,4.00
2023-03-15T10:31:21.547Z,5.70
2023-03-15T10:33:57.371Z,6.90
2023-03-15T10:36:25.497Z,3.20
2023-03-15T10:38:53.424Z,5.80
2023-03-15T10:41:37.570Z,6.80
2023-03-15T10:44:31.905Z,4.40
2023-03-15T10:47:02.954Z,5.20
2023-03-15T10:49:39.766Z,4.90
2023-03-15T10:52:26.304Z,8.90
2023-03-15T10:54:58.692Z,7.50
2023-03-15T10:57:34.750Z,8.10
2023-03-15T11:00:10.457Z,7.50
2023-03-15T11:02:38.480Z,6.90
2023-03-15T11:05:09.456Z,5.00
2023-03-15T11:07:37.306Z,7.80
2023-03-15T11:10:06.779Z,5.50
2023-03-15T11:12:35.008Z,7.20
2023-03-15T11:15:03.012Z,7.10
2023-03-15T11:17:32.789Z,6.60
2023-03-15T11:20:13.264Z,8.30
2023-03-15T11:22:41.115Z,7.70
2023-03-15T11:25:13.749Z,6.40
2023-03-15T11:27:43.620Z,7.10
2023-03-15T11:30:15.938Z,4.00
2023-03-15T11:32:45.027Z,7.40
2023-03-15T11:35:16.199Z,5.20
2023-03-15T11:38:03.217Z,5.10
2023-03-15T11:40:36.753Z,11.70
2023-03-15T11:43:20.043Z,7.00
2023-03-15T11:45:51.636Z,7.80
2023-03-15T11:48:31.520Z,3.40
2023-03-15T11:50:59.750Z,4.40
2023-03-15T11:53:36.197Z,3.80
2023-03-15T11:56:25.588Z,6.20
2023-03-15T11:59:02.250Z,5.90
2023-03-15T12:01:30.224Z,10.00
2023-03-15T12:04:16.946Z,8.10
2023-03-15T12:06:44.930Z,5.40
2023-03-15T12:09:31.876Z,9.20
2023-03-15T12:18:14.793Z,4.60
2023-03-15T12:20:46.440Z,5.30
2023-03-15T12:23:17.355Z,3.90
2023-03-15T12:25:55.359Z,7.50
2023-03-15T12:28:29.112Z,2.50
2023-03-15T12:30:59.626Z,2.90
2023-03-15T12:33:28.615Z,4.90
2023-03-15T12:36:08.411Z,6.30
2023-03-15T12:38:38.446Z,5.90
2023-03-15T12:41:08.595Z,5.30
2023-03-15T12:43:38.409Z,6.10
2023-03-15T12:46:06.874Z,3.90
2023-03-15T12:48:35.036Z,7.50
2023-03-15T12:51:04.087Z,6.00
2023-03-15T12:53:32.048Z,6.40
2023-03-15T12:56:18.440Z,4.80
2023-03-15T12:58:53.464Z,8.30
2023-03-15T13:01:25.728Z,6.10
2023-03-15T13:03:58.479Z,5.80
2023-03-15T13:07:02.729Z,2.30
2023-03-15T13:09:49.100Z,4.60
2023-03-15T13:12:52.298Z,4.10
2023-03-15T13:15:43.098Z,3.20
2023-03-15T13:18:18.238Z,3.20
2023-03-15T13:27:31.873Z,2.80
2023-03-15T13:30:21.208Z,8.60
2023-03-15T13:32:48.495Z,3.70
2023-03-15T13:35:16.664Z,3.30
2023-03-15T13:37:44.685Z,2.90
2023-03-15T13:40:13.457Z,3.30
2023-03-15T13:42:41.221Z,4.50
2023-03-15T13:45:13.347Z,4.00
2023-03-15T13:47:41.908Z,3.60
2023-03-15T13:50:13.147Z,5.30
2023-03-15T13:52:41.048Z,4.10
2023-03-15T13:55:20.469Z,3.40
2023-03-15T13:57:50.913Z,3.50
2023-03-15T14:00:18.867Z,3.60
2023-03-15T14:02:48.893Z,5.30
2023-03-15T14:05:26.689Z,5.90
2023-03-15T14:07:59.449Z,4.80
2023-03-15T14:10:39.334Z,4.80
2023-03-15T14:13:24.194Z,4.20
2023-03-15T14:15:55.639Z,3.40
2023-03-15T14:18:29.324Z,3.90
2023-03-15T14:21:02.731Z,5.40
2023-03-15T14:23:31.025Z,5.50
2023-03-15T14:26:18.434Z,7.00
2023-03-15T14:29:09.762Z,12.30
2023-03-15T14:31:39.380Z,4.50
2023-03-15T14:34:37.920Z,3.20
2023-03-15T14:37:24.655Z,4.30
2023-03-15T14:40:04.255Z,4.40
2023-03-15T14:42:31.064Z,6.60
2023-03-15T14:44:58.514Z,11.40
2023-03-15T14:47:26.442Z,9.80
2023-03-15T14:50:19.130Z,11.10
2023-03-15T14:52:52.828Z,6.90
2023-03-15T14:55:41.828Z,6.60
2023-03-15T14:58:14.372Z,7.90
2023-03-15T15:00:43.393Z,8.20
2023-03-15T15:03:31.977Z,10.00
2023-03-15T15:06:11.980Z,15.30
2023-03-15T15:08:47.306Z,9.00
2023-03-15T15:11:19.389Z,19.30
2023-03-15T15:13:58.185Z,12.10
2023-03-15T15:16:30.842Z,7.10
2023-03-15T15:19:16.733Z,6.70
2023-03-15T15:21:50.809Z,9.10
2023-03-15T15:24:29.430Z,6.20
2023-03-15T15:27:00.175Z,5.70
2023-03-15T15:29:30.967Z,5.70
2023-03-15T15:31:59.332Z,8.00
2023-03-15T15:34:27.384Z,6.80
2023-03-15T15:36:56.067Z,7.90
2023-03-15T15:39:27.728Z,6.60
2023-03-15T15:41:55.785Z,9.20
2023-03-15T15:44:27.545Z,6.30
2023-03-15T15:46:55.971Z,5.50
2023-03-15T15:49:24.331Z,5.50
2023-03-15T15:51:52.428Z,6.00
2023-03-15T15:54:26.780Z,7.00
2023-03-15T15:56:59.847Z,8.20
2023-03-15T15:59:30.972Z,3.60
2023-03-15T16:02:02.089Z,7.50
2023-03-15T16:04:33.039Z,6.10
2023-03-15T16:07:02.870Z,4.80
2023-03-15T16:09:55.087Z,7.20
2023-03-15T16:12:24.548Z,5.10
2023-03-15T16:14:53.538Z,6.90
2023-03-15T16:17:24.587Z,5.40
2023-03-15T16:19:53.417Z,5.30
2023-03-15T16:22:22.662Z,7.00
2023-03-15T16:24:52.502Z,7.90
2023-03-15T16:27:25.318Z,6.30
2023-03-15T16:29:55.205Z,11.70
2023-03-15T16:32:36.688Z,8.20
2023-03-15T16:35:15.847Z,11.30
2023-03-15T16:37:45.835Z,13.10
2023-03-15T16:40:17.051Z,5.30
2023-03-15T16:42:44.988Z,6.10
2023-03-15T16:51:48.952Z,8.10
2023-03-15T17:00:31.752Z,5.60
2023-03-15T17:03:00.257Z,7.50
2023-03-15T17:05:28.838Z,5.40
2023-03-15T17:07:56.830Z,11.40
2023-03-15T17:10:27.615Z,9.50
2023-03-15T17:12:56.382Z,6.40
2023-03-15T17:15:26.136Z,13.30
2023-03-15T17:17:57.325Z,14.40
2023-03-15T17:20:27.318Z,18.80
2023-03-15T17:23:03.960Z,17.40
2023-03-15T17:25:33.541Z,16.70
2023-03-15T17:28:02.248Z,15.80
2023-03-15T17:30:32.375Z,17.50
2023-03-15T17:33:01.775Z,13.60
2023-03-15T17:35:34.078Z,15.00
2023-03-15T17:38:03.742Z,15.80
2023-03-15T17:40:34.151Z,17.30
2023-03-15T17:43:03.747Z,16.10
2023-03-15T17:45:33.577Z,20.30
2023-03-15T17:48:02.639Z,22.50
2023-03-15T17:50:32.331Z,23.50
2023-03-15T17:53:02.870Z,28.90
2023-03-15T17:55:36.125Z,29.40
2023-03-15T17:58:20.071Z,25.90
2023-03-15T18:00:50.140Z,33.50
2023-03-15T18:03:18.600Z,37.20
2023-03-15T18:05:48.833Z,29.70
2023-03-15T18:08:19.742Z,32.80
2023-03-15T18:10:49.098Z,37.60
2023-03-15T18:13:18.994Z,47.20
2023-03-15T18:15:47.218Z,66.90
2023-03-15T18:18:15.546Z,63.90
2023-03-15T18:20:45.186Z,55.60
2023-03-15T18:23:14.689Z,35.60
2023-03-15T18:25:42.878Z,33.40
2023-03-15T18:28:11.114Z,31.70
2023-03-15T18:30:39.150Z,27.70
2023-03-15T18:33:07.461Z,28.00
2023-03-15T18:35:36.676Z,39.90
2023-03-15T18:38:05.406Z,42.00
2023-03-15T18:40:33.978Z,39.90
2023-03-15T18:43:03.444Z,44.00
2023-03-15T18:45:32.594Z,43.70
2023-03-15T18:48:00.644Z,40.60
2023-03-15T18:50:29.174Z,36.50
2023-03-15T18:52:57.111Z,38.20
2023-03-15T18:55:25.209Z,38.40
2023-03-15T18:57:54.284Z,44.20
2023-03-15T19:00:26.466Z,56.60
2023-03-15T19:02:56.334Z,56.00
2023-03-15T19:05:24.758Z,72.10
2023-03-15T19:07:53.448Z,87.80
2023-03-15T19:10:23.189Z,75.60
2023-03-15T19:12:52.382Z,70.80
2023-03-15T19:15:22.565Z,66.60
2023-03-15T19:17:51.807Z,69.90
2023-03-15T19:20:23.730Z,65.70
2023-03-15T19:22:52.169Z,70.90
2023-03-15T19:25:20.736Z,91.50
2023-03-15T19:27:49.006Z,85.30
2023-03-15T19:30:21.065Z,85.00
2023-03-15T19:32:50.248Z,74.70
2023-03-15T19:35:20.177Z,53.50
2023-03-15T19:37:48.459Z,33.30
2023-03-15T19:40:16.891Z,23.10
2023-03-15T19:42:45.140Z,26.70
2023-03-15T19:45:13.527Z,22.10
2023-03-15T19:47:41.692Z,24.90
2023-03-15T19:50:11.180Z,23.90
2023-03-15T19:52:45.842Z,24.30
2023-03-15T19:55:14.546Z,22.10
2023-03-15T19:57:42.757Z,15.90
2023-03-15T20:00:16.251Z,21.80
2023-03-15T20:02:45.229Z,20.90
2023-03-15T20:05:15.343Z,19.60
2023-03-15T20:07:43.613Z,42.80
2023-03-15T20:10:12.446Z,103.50
2023-03-15T20:12:43.817Z,92.90
2023-03-15T20:15:15.512Z,79.00
2023-03-15T20:17:46.214Z,80.40
2023-03-15T20:20:14.755Z,69.50
2023-03-15T20:22:44.276Z,62.40
2023-03-15T20:25:16.596Z,66.70
2023-03-15T20:27:44.673Z,79.50
2023-03-15T20:30:14.755Z,86.20
2023-03-15T20:32:43.093Z,64.80
2023-03-15T20:35:12.419Z,58.30
2023-03-15T20:37:41.703Z,55.50
2023-03-15T20:40:11.442Z,59.00
2023-03-15T20:42:39.624Z,63.30
2023-03-15T20:45:08.249Z,60.90
2023-03-15T20:47:37.775Z,55.10
2023-03-15T20:50:07.309Z,67.40
2023-03-15T20:52:35.266Z,68.60
2023-03-15T20:55:05.443Z,50.20
2023-03-15T20:57:41.415Z,59.50
2023-03-15T21:00:12.798Z,48.70
2023-03-15T21:02:41.264Z,52.90
2023-03-15T21:05:10.048Z,49.60
2023-03-15T21:07:37.906Z,52.60
2023-03-15T21:10:06.022Z,60.10
2023-03-15T21:12:33.920Z,46.00
2023-03-15T21:15:02.145Z,40.60
2023-03-15T21:17:30.149Z,43.80
2023-03-15T21:19:58.695Z,41.10
2023-03-15T21:22:26.722Z,43.90
2023-03-15T21:24:56.122Z,49.70
2023-03-15T21:27:26.349Z,65.10
2023-03-15T21:29:54.700Z,64.20
2023-03-15T21:32:22.792Z,62.70
2023-03-15T21:34:50.929Z,65.90
2023-03-15T21:37:19.101Z,56.20
2023-03-15T21:39:47.805Z,52.90
2023-03-15T21:42:15.562Z,49.50
2023-03-15T21:44:43.424Z,52.10
2023-03-15T21:47:11.772Z,54.50
2023-03-15T21:49:39.774Z,53.00
2023-03-15T21:52:07.659Z,54.30
2023-03-15T21:54:35.410Z,55.10
2023-03-15T21:57:04.351Z,49.80
2023-03-15T21:59:32.488Z,47.30
2023-03-15T22:02:01.809Z,48.40
2023-03-15T22:04:29.696Z,43.40
2023-03-15T22:06:57.536Z,45.10
2023-03-15T22:09:25.320Z,37.20
2023-03-15T22:11:53.016Z,35.80
2023-03-15T22:14:21.931Z,45.30
2023-03-15T22:16:49.725Z,41.30
2023-03-15T22:19:18.045Z,46.60
2023-03-15T22:21:45.918Z,46.30
2023-03-15T22:24:14.871Z,49.90
2023-03-15T22:26:46.388Z,41.70
2023-03-15T22:29:14.317Z,45.20
2023-03-15T22:31:42.220Z,39.10
2023-03-15T22:34:10.067Z,40.40
2023-03-15T22:36:37.864Z,42.70
2023-03-15T22:39:06.325Z,40.90
2023-03-15T22:41:34.545Z,40.00
2023-03-15T22:44:02.637Z,45.80
2023-03-15T22:46:35.155Z,36.90
2023-03-15T22:49:03.791Z,35.80
2023-03-15T22:51:31.587Z,37.40
2023-03-15T22:53:59.463Z,35.40
2023-03-15T22:56:27.285Z,38.10
2023-03-15T22:58:55.712Z,38.10
2023-03-15T23:01:23.667Z,38.70
2023-03-15T23:03:51.514Z,31.70
2023-03-15T23:06:19.846Z,36.30
2023-03-15T23:08:47.665Z,33.10
2023-03-15T23:11:15.470Z,28.90
2023-03-15T23:13:43.325Z,29.20
2023-03-15T23:16:11.957Z,33.30
2023-03-15T23:18:40.063Z,33.30
2023-03-15T23:21:08.843Z,35.60
2023-03-15T23:23:38.714Z,42.60
2023-03-15T23:26:06.620Z,47.10
2023-03-15T23:28:34.872Z,47.20
2023-03-15T23:31:03.994Z,42.70
2023-03-15T23:33:34.245Z,47.80
2023-03-15T23:36:03.416Z,51.80
2023-03-15T23:38:34.735Z,45.30
2023-03-15T23:41:03.033Z,48.80
2023-03-15T23:43:31.380Z,43.30
2023-03-15T23:46:00.590Z,41.60
2023-03-15T23:48:28.419Z,45.20
2023-03-15T23:50:57.070Z,43.50
2023-03-15T23:53:25.891Z,39.80
2023-03-15T23:55:53.688Z,38.80
2023-03-15T23:58:21.695Z,37.10
